Symmes, Ohio
Current Conditions -  °F | °C
As of 12:53 AM on Friday 28 Nov 2014 (Local Time) from KHAO Reporting Station
Overcast Overcast  
Wind Chill: 20°   Ceiling: 3800
Heat Index: 28°   Visibility: 10mi
Dew Point: 16°   Wind: 8mph
Humidity: 61%   Direction: 290°WNW
Pressure: 30.41"   Gusts: NA
Location:  39.2698°N, 84.3325°W
Report Text: KHAO 280553Z AUTO 29007KT 10SM OVC038 M02/M09 A3041 RMK AO2 SLP305 T10221089 11006 21022 53003
Loading
Personal Weather Stations






























Interactive Weather Map New forecast layout! Learn more

10-Day Weather Forecast

Advertisements
Track Severe Weather on mobile